createdAt,value
2023-02-24T00:00:47.348Z,7.93
2023-02-24T00:03:15.829Z,6.00
2023-02-24T00:05:54.598Z,7.03
2023-02-24T00:08:24.490Z,5.63
2023-02-24T00:10:54.244Z,7.53
2023-02-24T00:13:22.648Z,6.33
2023-02-24T00:16:02.047Z,6.50
2023-02-24T00:18:32.230Z,8.87
2023-02-24T00:21:08.203Z,7.60
2023-02-24T00:23:40.290Z,6.27
2023-02-24T00:26:10.224Z,7.87
2023-02-24T00:28:38.954Z,10.17
2023-02-24T00:31:09.913Z,8.40
2023-02-24T00:33:39.732Z,8.57
2023-02-24T00:36:10.584Z,7.90
2023-02-24T00:38:45.010Z,7.50
2023-02-24T00:41:18.281Z,9.63
2023-02-24T00:43:47.866Z,7.43
2023-02-24T00:46:17.419Z,9.10
2023-02-24T00:48:46.966Z,6.73
2023-02-24T00:51:18.122Z,6.90
2023-02-24T00:53:47.990Z,8.27
2023-02-24T00:56:17.042Z,7.17
2023-02-24T00:58:45.715Z,10.17
2023-02-24T01:01:15.728Z,7.67
2023-02-24T01:03:44.559Z,7.43
2023-02-24T01:06:14.497Z,7.90
2023-02-24T01:08:47.641Z,7.33
2023-02-24T01:11:36.484Z,7.33
2023-02-24T01:14:06.269Z,6.23
2023-02-24T01:16:34.622Z,5.47
2023-02-24T01:19:02.998Z,6.43
2023-02-24T01:21:31.415Z,6.23
2023-02-24T01:24:10.544Z,7.37
2023-02-24T01:26:40.539Z,5.47
2023-02-24T01:29:09.789Z,8.97
2023-02-24T01:31:38.593Z,7.67
2023-02-24T01:34:07.517Z,8.13
2023-02-24T01:36:35.835Z,12.57
2023-02-24T01:39:07.344Z,9.20
2023-02-24T01:41:35.732Z,7.23
2023-02-24T01:44:09.676Z,7.60
2023-02-24T01:46:39.804Z,5.60
2023-02-24T01:49:12.030Z,7.73
2023-02-24T01:51:43.892Z,6.10
2023-02-24T01:54:16.491Z,8.23
2023-02-24T01:56:48.386Z,6.57
2023-02-24T01:59:18.462Z,6.60
2023-02-24T02:01:48.446Z,6.90
2023-02-24T02:04:22.122Z,7.43
2023-02-24T02:06:50.779Z,11.63
2023-02-24T02:09:19.435Z,14.20
2023-02-24T02:11:49.287Z,14.03
2023-02-24T02:14:22.588Z,18.97
2023-02-24T02:17:05.044Z,9.53
2023-02-24T02:20:01.442Z,9.23
2023-02-24T02:22:50.151Z,10.17
2023-02-24T02:25:25.566Z,8.27
2023-02-24T02:28:22.588Z,9.67
2023-02-24T02:31:25.881Z,9.37
2023-02-24T02:34:23.392Z,7.70
2023-02-24T02:37:00.459Z,7.50
2023-02-24T02:39:37.108Z,7.77
2023-02-24T02:42:15.910Z,11.80
2023-02-24T02:44:56.172Z,9.60
2023-02-24T02:47:29.118Z,10.37
2023-02-24T02:50:08.185Z,6.90
2023-02-24T02:52:42.296Z,8.93
2023-02-24T02:55:14.618Z,8.23
2023-02-24T02:57:48.373Z,7.97
2023-02-24T03:00:23.251Z,7.40
2023-02-24T03:02:55.262Z,9.73
2023-02-24T03:05:32.864Z,7.93
2023-02-24T03:08:05.676Z,7.53
2023-02-24T03:10:34.909Z,8.57
2023-02-24T03:13:06.850Z,8.63
2023-02-24T03:15:44.839Z,8.80
2023-02-24T03:18:29.085Z,10.20
2023-02-24T03:21:07.552Z,8.23
2023-02-24T03:23:38.909Z,7.17
2023-02-24T03:26:17.265Z,7.83
2023-02-24T03:28:53.682Z,7.50
2023-02-24T03:31:29.029Z,7.00
2023-02-24T03:34:03.807Z,5.60
2023-02-24T03:36:34.128Z,7.30
2023-02-24T03:39:05.428Z,5.30
2023-02-24T03:41:41.284Z,5.33
2023-02-24T03:44:12.129Z,5.93
2023-02-24T03:46:42.582Z,6.40
2023-02-24T03:49:14.023Z,6.07
2023-02-24T03:51:45.099Z,5.63
2023-02-24T03:54:30.858Z,7.20
2023-02-24T03:57:12.909Z,4.53
2023-02-24T03:59:52.819Z,7.50
2023-02-24T04:02:25.105Z,5.07
2023-02-24T04:05:00.462Z,6.03
2023-02-24T04:07:41.193Z,5.80
2023-02-24T04:10:15.556Z,5.50
2023-02-24T04:12:53.879Z,7.03
2023-02-24T04:15:29.059Z,7.40
2023-02-24T04:18:01.423Z,5.23
2023-02-24T04:20:33.079Z,8.30
2023-02-24T04:23:08.771Z,5.67
2023-02-24T04:25:37.954Z,9.27
2023-02-24T04:28:08.031Z,5.17
2023-02-24T04:30:40.051Z,4.47
2023-02-24T04:33:10.085Z,5.87
2023-02-24T04:35:40.518Z,6.67
2023-02-24T04:38:10.219Z,5.57
2023-02-24T04:40:40.870Z,7.23
2023-02-24T04:43:09.918Z,10.67
2023-02-24T04:45:40.050Z,6.40
2023-02-24T04:48:12.951Z,5.67
2023-02-24T04:50:43.170Z,6.03
2023-02-24T04:53:15.523Z,5.40
2023-02-24T04:55:48.772Z,5.37
2023-02-24T04:58:20.236Z,6.57
2023-02-24T05:00:57.399Z,11.03
2023-02-24T05:03:28.589Z,6.03
2023-02-24T05:06:00.097Z,6.97
2023-02-24T05:08:31.850Z,6.80
2023-02-24T05:11:05.671Z,5.40
2023-02-24T05:13:37.659Z,6.53
2023-02-24T05:16:08.341Z,5.70
2023-02-24T05:18:37.207Z,5.60
2023-02-24T05:21:25.880Z,5.90
2023-02-24T05:23:55.949Z,4.27
2023-02-24T05:26:25.793Z,7.53
2023-02-24T05:28:59.665Z,5.87
2023-02-24T05:31:29.885Z,8.93
2023-02-24T05:34:02.648Z,7.97
2023-02-24T05:36:34.207Z,5.00
2023-02-24T05:39:07.696Z,5.43
2023-02-24T05:41:38.909Z,6.40
2023-02-24T05:44:09.506Z,9.07
2023-02-24T05:46:40.394Z,6.03
2023-02-24T05:49:14.302Z,4.97
2023-02-24T05:51:54.583Z,6.30
2023-02-24T05:54:29.353Z,9.77
2023-02-24T05:57:01.562Z,4.50
2023-02-24T05:59:33.075Z,8.60
2023-02-24T06:02:07.056Z,6.57
2023-02-24T06:04:50.032Z,9.30
2023-02-24T06:07:20.754Z,5.63
2023-02-24T06:09:53.634Z,7.07
2023-02-24T06:12:23.416Z,5.80
2023-02-24T06:14:53.015Z,8.87
2023-02-24T06:17:22.957Z,6.40
2023-02-24T06:19:53.076Z,7.53
2023-02-24T06:22:23.265Z,7.90
2023-02-24T06:24:54.484Z,9.63
2023-02-24T06:27:24.896Z,10.63
2023-02-24T06:29:55.329Z,12.13
2023-02-24T06:32:27.054Z,10.27
2023-02-24T06:34:57.188Z,11.33
2023-02-24T06:37:27.320Z,11.83
2023-02-24T06:39:58.260Z,9.00
2023-02-24T06:42:26.597Z,8.37
2023-02-24T06:44:54.989Z,8.50
2023-02-24T06:47:23.290Z,14.50
2023-02-24T06:49:51.761Z,7.33
2023-02-24T06:52:21.373Z,8.10
2023-02-24T06:54:52.466Z,10.33
2023-02-24T06:57:23.552Z,12.70
2023-02-24T06:59:52.325Z,14.00
2023-02-24T07:02:20.686Z,8.43
2023-02-24T07:04:49.050Z,9.13
2023-02-24T07:07:17.605Z,10.43
2023-02-24T07:09:46.132Z,8.73
2023-02-24T07:12:21.079Z,11.93
2023-02-24T07:14:50.916Z,8.07
2023-02-24T07:17:19.973Z,8.57
2023-02-24T07:19:48.378Z,11.87
2023-02-24T07:22:24.943Z,8.50
2023-02-24T07:25:00.514Z,10.10
2023-02-24T07:27:30.103Z,7.00
2023-02-24T07:30:00.142Z,9.77
2023-02-24T07:32:28.529Z,6.87
2023-02-24T07:34:56.856Z,8.77
2023-02-24T07:37:25.211Z,6.77
2023-02-24T07:39:53.692Z,6.17
2023-02-24T07:42:22.492Z,11.40
2023-02-24T07:44:50.967Z,10.37
2023-02-24T07:47:21.449Z,10.07
2023-02-24T07:49:51.302Z,8.00
2023-02-24T07:52:19.653Z,9.20
2023-02-24T07:54:49.666Z,9.10
2023-02-24T07:57:19.007Z,11.37
2023-02-24T07:59:48.120Z,8.43
2023-02-24T08:02:18.362Z,8.83
2023-02-24T08:04:51.734Z,9.90
2023-02-24T08:07:24.817Z,10.47
2023-02-24T08:10:14.415Z,10.70
2023-02-24T08:12:43.790Z,10.13
2023-02-24T08:15:24.064Z,9.90
2023-02-24T08:18:00.474Z,15.03
2023-02-24T08:20:36.270Z,8.43
2023-02-24T08:23:08.551Z,9.30
2023-02-24T08:25:36.939Z,8.37
2023-02-24T08:28:09.177Z,9.57
2023-02-24T08:30:40.684Z,7.93
2023-02-24T08:33:10.708Z,10.43
2023-02-24T08:35:45.329Z,8.93
2023-02-24T08:38:16.555Z,8.13
2023-02-24T08:40:55.113Z,8.83
2023-02-24T08:43:33.411Z,9.37
2023-02-24T08:46:06.612Z,8.27
2023-02-24T08:48:42.194Z,16.47
2023-02-24T08:51:17.768Z,10.57
2023-02-24T08:53:47.779Z,8.20
2023-02-24T08:56:24.260Z,7.93
2023-02-24T08:58:58.111Z,11.07
2023-02-24T09:01:34.633Z,9.53
2023-02-24T09:04:06.382Z,11.17
2023-02-24T09:06:45.020Z,10.00
2023-02-24T09:09:19.010Z,11.73
2023-02-24T09:11:48.445Z,8.33
2023-02-24T09:14:27.119Z,11.23
2023-02-24T09:17:11.257Z,12.00
2023-02-24T09:20:02.446Z,8.27
2023-02-24T09:22:40.680Z,8.10
2023-02-24T09:25:23.891Z,12.13
2023-02-24T09:27:56.099Z,12.93
2023-02-24T09:30:36.821Z,8.63
2023-02-24T09:33:21.260Z,8.13
2023-02-24T09:36:02.933Z,9.47
2023-02-24T09:38:50.178Z,13.47
2023-02-24T09:41:31.628Z,8.83
2023-02-24T09:44:04.020Z,12.70
2023-02-24T09:46:39.331Z,9.90
2023-02-24T09:49:17.350Z,9.90
2023-02-24T09:51:53.332Z,10.87
2023-02-24T09:54:24.725Z,9.50
2023-02-24T09:57:08.253Z,11.07
2023-02-24T10:00:01.110Z,9.00
2023-02-24T10:02:45.248Z,8.57
2023-02-24T10:05:27.387Z,9.37
2023-02-24T10:07:58.050Z,10.97
2023-02-24T10:10:36.012Z,9.67
2023-02-24T10:13:17.037Z,13.73
2023-02-24T10:16:06.171Z,11.00
2023-02-24T10:18:44.188Z,11.70
2023-02-24T10:21:30.402Z,9.57
2023-02-24T10:24:09.424Z,16.80
2023-02-24T10:27:00.090Z,17.07
2023-02-24T10:29:43.234Z,20.43
2023-02-24T10:32:24.060Z,10.57
2023-02-24T10:34:53.991Z,12.17
2023-02-24T10:37:28.912Z,12.73
2023-02-24T10:39:59.650Z,11.73
2023-02-24T10:42:31.972Z,12.80
2023-02-24T10:45:20.673Z,12.40
2023-02-24T10:47:57.094Z,9.97
2023-02-24T10:50:29.798Z,11.63
2023-02-24T10:53:34.359Z,11.83
2023-02-24T10:56:26.762Z,12.63
2023-02-24T10:59:41.224Z,12.60
2023-02-24T11:02:29.444Z,13.70
2023-02-24T11:05:37.871Z,13.40
2023-02-24T11:08:09.520Z,16.03
2023-02-24T11:10:53.264Z,10.80
2023-02-24T11:13:39.440Z,9.30
2023-02-24T11:16:29.265Z,10.30
2023-02-24T11:18:58.605Z,16.90
2023-02-24T11:21:28.769Z,10.47
2023-02-24T11:24:02.966Z,13.93
2023-02-24T11:26:37.308Z,11.23
2023-02-24T11:29:24.234Z,10.23
2023-02-24T11:32:18.922Z,10.23
2023-02-24T11:34:54.350Z,15.50
2023-02-24T11:37:37.331Z,10.87
2023-02-24T11:40:13.583Z,12.63
2023-02-24T11:42:46.275Z,16.67
2023-02-24T11:45:29.398Z,11.07
2023-02-24T11:48:04.919Z,14.70
2023-02-24T11:50:47.225Z,13.83
2023-02-24T11:53:27.325Z,19.33
2023-02-24T11:56:01.887Z,20.43
2023-02-24T11:58:40.459Z,17.27
2023-02-24T12:01:16.019Z,12.63
2023-02-24T12:03:56.687Z,14.77
2023-02-24T12:06:35.371Z,11.90
2023-02-24T12:09:10.353Z,17.73
2023-02-24T12:11:46.510Z,10.40
2023-02-24T12:14:24.171Z,12.73
2023-02-24T12:17:01.321Z,13.50
2023-02-24T12:19:37.153Z,11.07
2023-02-24T12:22:15.547Z,12.53
2023-02-24T12:24:49.850Z,12.87
2023-02-24T12:27:27.681Z,18.10
2023-02-24T12:30:06.863Z,13.57
2023-02-24T12:32:57.535Z,12.97
2023-02-24T12:35:35.281Z,12.03
2023-02-24T12:38:17.457Z,12.07
2023-02-24T12:41:05.757Z,11.83
2023-02-24T12:43:39.919Z,9.43
2023-02-24T12:46:24.278Z,9.43
2023-02-24T12:49:16.524Z,9.90
2023-02-24T12:51:57.406Z,11.83
2023-02-24T12:54:38.375Z,10.53
2023-02-24T12:57:15.791Z,9.30
2023-02-24T12:59:44.406Z,13.00
2023-02-24T13:02:23.535Z,8.40
2023-02-24T13:05:14.007Z,15.00
2023-02-24T13:08:03.867Z,10.27
2023-02-24T13:10:39.689Z,9.67
2023-02-24T13:13:25.138Z,9.87
2023-02-24T13:16:09.090Z,9.57
2023-02-24T13:18:39.555Z,8.07
2023-02-24T13:21:10.925Z,10.97
2023-02-24T13:23:42.867Z,10.07
2023-02-24T13:26:11.458Z,12.03
2023-02-24T13:28:39.917Z,8.97
2023-02-24T13:31:10.461Z,9.20
2023-02-24T13:33:41.936Z,10.73
2023-02-24T13:36:14.794Z,10.37
2023-02-24T13:38:46.107Z,11.63
2023-02-24T13:41:38.092Z,12.87
2023-02-24T13:44:24.450Z,12.70
2023-02-24T13:47:18.989Z,10.77
2023-02-24T13:50:01.090Z,14.37
2023-02-24T13:52:46.997Z,10.00
2023-02-24T13:55:33.826Z,9.87
2023-02-24T13:58:20.894Z,10.70
2023-02-24T14:01:03.618Z,10.53
2023-02-24T14:03:33.028Z,16.57
2023-02-24T14:06:02.984Z,13.27
2023-02-24T14:08:42.422Z,10.17
2023-02-24T14:11:16.380Z,8.87
2023-02-24T14:13:49.482Z,12.20
2023-02-24T14:16:21.767Z,13.20
2023-02-24T14:18:55.122Z,13.77
2023-02-24T14:21:26.018Z,14.37
2023-02-24T14:23:58.820Z,12.90
2023-02-24T14:26:31.490Z,13.43
2023-02-24T14:29:01.827Z,15.60
2023-02-24T14:31:31.257Z,12.07
2023-02-24T14:34:02.553Z,14.87
2023-02-24T14:36:34.227Z,30.50
2023-02-24T14:39:09.196Z,13.40
2023-02-24T14:41:38.886Z,19.73
2023-02-24T14:44:19.372Z,20.67
2023-02-24T14:46:49.363Z,17.60
2023-02-24T14:49:26.277Z,12.13
2023-02-24T14:51:59.099Z,10.73
2023-02-24T14:54:40.300Z,11.23
2023-02-24T14:57:13.814Z,15.27
2023-02-24T14:59:46.336Z,12.47
2023-02-24T15:02:19.600Z,12.60
2023-02-24T15:04:48.529Z,10.87
2023-02-24T15:07:23.758Z,11.20
2023-02-24T15:09:54.967Z,9.73
2023-02-24T15:12:30.166Z,12.33
2023-02-24T15:15:01.988Z,15.33
2023-02-24T15:17:31.098Z,10.83
2023-02-24T15:19:59.512Z,13.17
2023-02-24T15:22:30.676Z,12.03
2023-02-24T15:25:18.750Z,10.97
2023-02-24T15:27:53.883Z,9.27
2023-02-24T15:30:34.061Z,13.57
2023-02-24T15:33:05.938Z,10.30
2023-02-24T15:35:37.620Z,11.77
2023-02-24T15:38:06.423Z,14.70
2023-02-24T15:40:34.744Z,9.83
2023-02-24T15:43:12.001Z,12.53
2023-02-24T15:45:41.227Z,13.73
2023-02-24T15:48:24.176Z,11.97
2023-02-24T15:50:52.518Z,14.87
2023-02-24T15:53:21.077Z,14.03
2023-02-24T15:55:50.266Z,12.70
2023-02-24T15:58:23.088Z,12.07
2023-02-24T16:00:52.508Z,12.40
2023-02-24T16:03:21.061Z,11.23
2023-02-24T16:05:49.471Z,11.03
2023-02-24T16:08:20.666Z,13.33
2023-02-24T16:10:50.440Z,8.37
2023-02-24T16:13:23.996Z,11.43
2023-02-24T16:15:53.465Z,11.37
2023-02-24T16:18:24.324Z,12.17
2023-02-24T16:20:54.473Z,12.57
2023-02-24T16:23:23.895Z,9.03
2023-02-24T16:25:56.689Z,12.23
2023-02-24T16:28:27.007Z,9.37
2023-02-24T16:30:55.461Z,9.90
2023-02-24T16:33:24.351Z,11.73
2023-02-24T16:35:54.008Z,10.33
2023-02-24T16:38:26.660Z,15.50
2023-02-24T16:40:56.262Z,16.63
2023-02-24T16:43:26.044Z,16.37
2023-02-24T16:45:56.581Z,17.87
2023-02-24T16:48:27.514Z,16.40
2023-02-24T16:50:56.245Z,16.43
2023-02-24T16:53:25.389Z,21.80
2023-02-24T16:55:53.986Z,23.03
2023-02-24T16:58:23.421Z,17.00
2023-02-24T17:00:56.202Z,19.20
2023-02-24T17:03:28.008Z,20.13
2023-02-24T17:05:57.696Z,22.57
2023-02-24T17:08:26.276Z,19.57
2023-02-24T17:10:54.793Z,59.80
2023-02-24T17:13:23.250Z,30.97
2023-02-24T17:15:55.468Z,21.90
2023-02-24T17:18:24.430Z,20.87
2023-02-24T17:20:53.264Z,26.17
2023-02-24T17:23:21.794Z,20.63
2023-02-24T17:25:53.559Z,25.60
2023-02-24T17:28:22.264Z,32.47
2023-02-24T17:30:50.777Z,35.93
2023-02-24T17:33:20.530Z,23.00
2023-02-24T17:35:49.570Z,25.37
2023-02-24T17:38:20.177Z,26.50
2023-02-24T17:40:48.899Z,24.33
2023-02-24T17:43:17.515Z,24.63
2023-02-24T17:45:47.679Z,20.37
2023-02-24T17:48:16.768Z,24.47
2023-02-24T17:50:51.130Z,28.07
2023-02-24T17:53:19.631Z,25.97
2023-02-24T17:56:01.952Z,24.47
2023-02-24T17:58:30.890Z,20.80
2023-02-24T18:01:00.388Z,19.53
2023-02-24T18:03:29.287Z,24.80
2023-02-24T18:06:03.272Z,27.30
2023-02-24T18:08:33.368Z,17.97
2023-02-24T18:11:01.785Z,17.57
2023-02-24T18:13:31.292Z,16.43
2023-02-24T18:16:00.048Z,15.57
2023-02-24T18:18:30.214Z,20.43
2023-02-24T18:21:04.160Z,23.43
2023-02-24T18:23:32.668Z,19.97
2023-02-24T18:26:03.199Z,14.60
2023-02-24T18:28:32.025Z,17.87
2023-02-24T18:31:03.260Z,12.40
2023-02-24T18:33:31.898Z,18.43
2023-02-24T18:36:02.948Z,13.23
2023-02-24T18:38:31.325Z,19.00
2023-02-24T18:41:01.184Z,18.23
2023-02-24T18:43:30.102Z,14.77
2023-02-24T18:45:59.448Z,13.50
2023-02-24T18:48:28.427Z,21.53
2023-02-24T18:50:58.649Z,17.37
2023-02-24T18:53:30.386Z,14.13
2023-02-24T18:56:02.214Z,15.77
2023-02-24T18:58:31.049Z,19.43
2023-02-24T19:00:59.739Z,20.10
2023-02-24T19:03:28.119Z,14.03
2023-02-24T19:05:56.687Z,14.57
2023-02-24T19:08:25.000Z,14.93
2023-02-24T19:10:54.689Z,13.97
2023-02-24T19:13:24.039Z,17.27
2023-02-24T19:15:52.477Z,16.53
2023-02-24T19:18:20.819Z,16.73
2023-02-24T19:20:49.259Z,19.10
2023-02-24T19:23:17.613Z,18.40
2023-02-24T19:25:46.005Z,16.13
2023-02-24T19:28:16.389Z,13.80
2023-02-24T19:30:44.975Z,12.37
2023-02-24T19:33:13.400Z,15.13
2023-02-24T19:35:42.920Z,35.03
2023-02-24T19:38:14.657Z,13.30
2023-02-24T19:40:43.521Z,11.70
2023-02-24T19:43:12.410Z,8.90
2023-02-24T19:45:43.349Z,11.97
2023-02-24T19:48:11.795Z,9.30
2023-02-24T19:50:41.395Z,15.03
2023-02-24T19:53:10.156Z,9.50
2023-02-24T19:55:38.536Z,6.37
2023-02-24T19:58:06.868Z,10.20
2023-02-24T20:00:35.213Z,11.30
2023-02-24T20:03:04.907Z,10.87
2023-02-24T20:05:36.454Z,7.50
2023-02-24T20:08:05.192Z,6.13
2023-02-24T20:10:33.552Z,4.87
2023-02-24T20:13:02.005Z,6.00
2023-02-24T20:15:31.556Z,6.27
2023-02-24T20:18:08.773Z,5.80
2023-02-24T20:20:37.350Z,8.47
2023-02-24T20:23:06.312Z,17.57
2023-02-24T20:25:34.778Z,6.47
2023-02-24T20:28:03.229Z,6.80
2023-02-24T20:30:31.620Z,7.77
2023-02-24T20:33:00.106Z,12.70
2023-02-24T20:35:30.189Z,4.80
2023-02-24T20:37:58.506Z,1.87
2023-02-24T20:40:26.936Z,2.23
2023-02-24T20:42:55.375Z,9.43
2023-02-24T20:45:23.722Z,11.23
2023-02-24T20:47:52.078Z,2.80
2023-02-24T20:50:20.467Z,4.57
2023-02-24T20:52:50.122Z,3.00
2023-02-24T20:55:18.612Z,2.30
2023-02-24T20:57:47.005Z,2.87
2023-02-24T21:00:16.281Z,2.40
2023-02-24T21:02:45.083Z,2.47
2023-02-24T21:05:19.727Z,1.57
2023-02-24T21:07:50.947Z,2.80
2023-02-24T21:10:22.406Z,1.33
2023-02-24T21:12:52.601Z,2.20
2023-02-24T21:15:21.948Z,2.93
2023-02-24T21:17:54.167Z,2.17
2023-02-24T21:20:22.554Z,2.43
2023-02-24T21:22:52.984Z,3.10
2023-02-24T21:25:21.420Z,9.83
2023-02-24T21:27:49.757Z,1.83
2023-02-24T21:30:18.397Z,3.63
2023-02-24T21:32:46.943Z,7.17
2023-02-24T21:35:21.665Z,35.57
2023-02-24T21:37:49.997Z,7.53
2023-02-24T21:40:19.959Z,6.07
2023-02-24T21:42:55.556Z,6.33
2023-02-24T21:45:24.539Z,7.10
2023-02-24T21:47:53.037Z,2.70
2023-02-24T21:50:23.789Z,2.37
2023-02-24T21:52:52.605Z,1.50
2023-02-24T21:55:23.494Z,1.70
2023-02-24T21:57:55.199Z,3.07
2023-02-24T22:00:24.413Z,2.73
2023-02-24T22:02:59.917Z,4.00
2023-02-24T22:05:29.318Z,3.47
2023-02-24T22:07:58.006Z,1.90
2023-02-24T22:10:28.122Z,3.87
2023-02-24T22:12:57.930Z,4.80
2023-02-24T22:15:26.408Z,6.50
2023-02-24T22:17:57.899Z,4.97
2023-02-24T22:20:26.598Z,4.00
2023-02-24T22:23:05.691Z,4.17
2023-02-24T22:25:39.690Z,5.63
2023-02-24T22:28:08.495Z,16.27
2023-02-24T22:30:36.907Z,13.10
2023-02-24T22:33:05.359Z,5.20
2023-02-24T22:35:35.390Z,2.73
2023-02-24T22:38:04.458Z,3.97
2023-02-24T22:40:33.161Z,3.33
2023-02-24T22:43:05.083Z,2.67
2023-02-24T22:45:34.126Z,6.00
2023-02-24T22:48:03.086Z,2.73
2023-02-24T22:50:31.753Z,1.87
2023-02-24T22:53:04.455Z,2.43
2023-02-24T22:55:33.291Z,3.43
2023-02-24T22:58:03.183Z,4.57
2023-02-24T23:00:32.002Z,2.43
2023-02-24T23:03:00.737Z,3.30
2023-02-24T23:05:29.849Z,4.00
2023-02-24T23:07:59.056Z,2.27
2023-02-24T23:10:28.026Z,2.13
2023-02-24T23:12:56.923Z,4.40
2023-02-24T23:15:26.910Z,10.50
2023-02-24T23:17:55.467Z,10.67
2023-02-24T23:20:23.892Z,2.77
2023-02-24T23:22:53.579Z,2.50
2023-02-24T23:25:23.151Z,2.87
2023-02-24T23:27:54.060Z,1.50
2023-02-24T23:30:23.144Z,4.63
2023-02-24T23:33:01.047Z,2.57
2023-02-24T23:35:30.169Z,6.40
2023-02-24T23:37:58.497Z,2.07
2023-02-24T23:40:30.833Z,4.87
2023-02-24T23:43:02.586Z,2.50
2023-02-24T23:45:30.970Z,2.60
2023-02-24T23:48:00.630Z,2.10
2023-02-24T23:50:29.000Z,2.37
2023-02-24T23:52:58.563Z,2.87
2023-02-24T23:55:26.912Z,3.33
2023-02-24T23:57:55.418Z,5.83
